createdAt,value
2019-06-01T00:00:35.351Z,0.00
2019-06-01T00:01:35.498Z,0.00
2019-06-01T00:02:35.656Z,0.00
2019-06-01T00:03:35.823Z,0.00
2019-06-01T00:04:35.960Z,0.00
2019-06-01T00:05:36.713Z,0.00
2019-06-01T00:06:38.536Z,0.00
2019-06-01T00:07:37.226Z,0.00
2019-06-01T00:08:36.647Z,0.00
2019-06-01T00:09:36.806Z,0.00
2019-06-01T00:10:36.966Z,0.00
2019-06-01T00:11:39.092Z,0.00
2019-06-01T00:12:37.328Z,0.00
2019-06-01T00:13:37.731Z,0.00
2019-06-01T00:14:39.566Z,0.00
2019-06-01T00:15:37.808Z,0.00
2019-06-01T00:16:37.959Z,0.00
2019-06-01T00:17:38.129Z,0.00
2019-06-01T00:18:38.298Z,0.00
2019-06-01T00:19:38.426Z,0.00
2019-06-01T00:20:38.558Z,0.00
2019-06-01T00:21:38.713Z,0.00
2019-06-01T00:22:38.883Z,0.00
2019-06-01T00:23:40.301Z,0.00
2019-06-01T00:24:39.236Z,0.00
2019-06-01T00:25:40.436Z,0.00
2019-06-01T00:26:41.564Z,0.00
2019-06-01T00:27:40.443Z,0.00
2019-06-01T00:28:41.690Z,0.00
2019-06-01T00:29:41.211Z,0.00
2019-06-01T00:30:41.649Z,0.00
2019-06-01T00:31:41.212Z,0.00
2019-06-01T00:32:42.777Z,0.00
2019-06-01T00:33:41.208Z,0.00
2019-06-01T00:34:42.128Z,0.00
2019-06-01T00:35:41.374Z,0.00
2019-06-01T00:36:41.716Z,0.00
2019-06-01T00:37:43.382Z,0.00
2019-06-01T00:38:41.821Z,0.00
2019-06-01T00:40:14.871Z,0.00
2019-06-01T00:40:42.106Z,0.00
2019-06-01T00:41:42.358Z,0.00
2019-06-01T00:42:42.492Z,0.00
2019-06-01T00:43:42.614Z,0.00
2019-06-01T00:44:42.771Z,0.00
2019-06-01T00:45:42.896Z,0.00
2019-06-01T00:46:44.411Z,0.00
2019-06-01T00:47:44.658Z,0.00
2019-06-01T00:48:43.799Z,0.00
2019-06-01T00:49:44.797Z,0.00
2019-06-01T00:50:44.972Z,0.00
2019-06-01T00:51:46.927Z,0.00
2019-06-01T00:52:45.121Z,0.00
2019-06-01T00:53:45.467Z,0.00
2019-06-01T00:54:45.597Z,0.00
2019-06-01T00:55:45.996Z,0.00
2019-06-01T00:56:45.565Z,0.00
2019-06-01T00:57:45.680Z,0.00
2019-06-01T00:58:45.693Z,0.00
2019-06-01T00:59:47.985Z,0.00
2019-06-01T01:00:47.757Z,0.00
2019-06-01T01:01:45.950Z,0.00
2019-06-01T01:02:48.052Z,0.00
2019-06-01T01:03:46.361Z,0.00
2019-06-01T01:04:46.769Z,0.00
2019-06-01T01:05:47.102Z,0.00
2019-06-01T01:06:49.242Z,0.00
2019-06-01T01:08:22.183Z,0.00
2019-06-01T01:08:47.161Z,0.00
2019-06-01T01:09:48.792Z,0.00
2019-06-01T01:10:47.465Z,0.00
2019-06-01T01:11:49.136Z,0.00
2019-06-01T01:12:49.057Z,0.00
2019-06-01T01:13:49.150Z,0.00
2019-06-01T01:14:49.151Z,0.00
2019-06-01T01:15:49.302Z,0.00
2019-06-01T01:16:49.459Z,0.00
2019-06-01T01:17:49.774Z,0.00
2019-06-01T01:18:49.753Z,0.00
2019-06-01T01:19:49.685Z,0.00
2019-06-01T01:20:50.059Z,0.00
2019-06-01T01:21:49.937Z,0.00
2019-06-01T01:22:50.272Z,0.00
2019-06-01T01:23:50.793Z,0.00
2019-06-01T01:24:50.491Z,0.00
2019-06-01T01:25:50.506Z,0.00
2019-06-01T01:26:50.540Z,0.00
2019-06-01T01:27:51.284Z,0.00
2019-06-01T01:28:50.745Z,0.00
2019-06-01T01:29:51.290Z,0.00
2019-06-01T01:31:03.031Z,0.00
2019-06-01T01:31:53.252Z,0.00
2019-06-01T01:32:51.778Z,0.00
2019-06-01T01:33:53.452Z,0.00
2019-06-01T01:34:53.728Z,0.00
2019-06-01T01:35:52.643Z,0.00
2019-06-01T01:36:54.335Z,0.00
2019-06-01T01:37:52.143Z,0.00
2019-06-01T01:38:54.241Z,0.00
2019-06-01T01:39:54.236Z,0.00
2019-06-01T01:40:52.629Z,0.00
2019-06-01T01:41:52.772Z,0.00
2019-06-01T01:42:54.445Z,0.00
2019-06-01T01:43:53.088Z,0.00
2019-06-01T01:44:54.652Z,0.00
2019-06-01T01:45:54.724Z,0.00
2019-06-01T01:46:54.778Z,0.00
2019-06-01T01:47:54.974Z,0.00
2019-06-01T01:48:54.259Z,0.00
2019-06-01T01:49:54.125Z,0.00
2019-06-01T01:50:54.379Z,0.00
2019-06-01T01:51:55.429Z,0.00
2019-06-01T01:52:54.844Z,0.00
2019-06-01T01:53:54.794Z,0.00
2019-06-01T01:54:56.813Z,0.00
2019-06-01T01:55:55.217Z,0.00
2019-06-01T01:56:56.305Z,0.00
2019-06-01T01:57:55.553Z,0.00
2019-06-01T01:58:56.615Z,0.00
2019-06-01T02:00:14.762Z,0.00
2019-06-01T02:00:56.847Z,0.00
2019-06-01T02:01:57.243Z,0.00
2019-06-01T02:02:56.697Z,0.00
2019-06-01T02:04:31.711Z,0.00
2019-06-01T02:04:57.787Z,0.00
2019-06-01T02:05:57.042Z,0.00
2019-06-01T02:06:58.462Z,0.00
2019-06-01T02:08:00.095Z,0.00
2019-06-01T02:08:59.332Z,0.00
2019-06-01T02:09:57.671Z,0.00
2019-06-01T02:10:59.548Z,0.00
2019-06-01T02:11:57.930Z,0.00
2019-06-01T02:12:58.080Z,0.00
2019-06-01T02:13:59.956Z,0.00
2019-06-01T02:14:58.383Z,0.00
2019-06-01T02:15:58.581Z,0.00
2019-06-01T02:17:00.233Z,0.00
2019-06-01T02:18:00.618Z,0.00
2019-06-01T02:19:19.996Z,0.00
2019-06-01T02:20:00.212Z,0.00
2019-06-01T02:21:22.216Z,0.00
2019-06-01T02:22:00.682Z,0.00
2019-06-01T02:23:00.965Z,0.00
2019-06-01T02:24:01.264Z,0.00
2019-06-01T02:25:02.114Z,0.00
2019-06-01T02:26:01.153Z,0.00
2019-06-01T02:27:22.310Z,0.00
2019-06-01T02:28:01.522Z,0.00
2019-06-01T02:29:02.015Z,0.00
2019-06-01T02:30:04.822Z,0.00
2019-06-01T02:31:02.107Z,0.00
2019-06-01T02:32:35.225Z,0.00
2019-06-01T02:33:02.372Z,0.00
2019-06-01T02:34:03.381Z,0.00
2019-06-01T02:35:02.643Z,0.00
2019-06-01T02:36:03.539Z,0.00
2019-06-01T02:37:04.440Z,0.00
2019-06-01T02:38:03.126Z,0.00
2019-06-01T02:39:05.095Z,0.00
2019-06-01T02:40:03.285Z,0.00
2019-06-01T02:41:05.487Z,0.00
2019-06-01T02:42:03.486Z,0.00
2019-06-01T02:43:06.893Z,0.00
2019-06-01T02:44:06.138Z,4.00
2019-06-01T02:45:03.622Z,4.00
2019-06-01T02:46:07.429Z,4.00
2019-06-01T02:47:04.519Z,0.00
2019-06-01T02:48:06.287Z,0.00
2019-06-01T02:49:04.767Z,4.00
2019-06-01T02:50:06.355Z,4.00
2019-06-01T02:51:05.394Z,4.00
2019-06-01T02:52:05.501Z,4.00
2019-06-01T02:53:06.860Z,4.00
2019-06-01T02:54:06.163Z,4.00
2019-06-01T02:55:06.491Z,4.00
2019-06-01T02:56:06.242Z,4.00
2019-06-01T02:57:06.213Z,8.00
2019-06-01T02:58:06.664Z,8.00
2019-06-01T02:59:06.730Z,8.00
2019-06-01T03:00:06.702Z,12.00
2019-06-01T03:01:07.844Z,12.00
2019-06-01T03:02:10.924Z,12.00
2019-06-01T03:03:08.618Z,16.00
2019-06-01T03:04:08.119Z,16.00
2019-06-01T03:05:07.680Z,20.00
2019-06-01T03:06:08.094Z,20.00
2019-06-01T03:07:08.695Z,20.00
2019-06-01T03:08:07.649Z,28.00
2019-06-01T03:09:09.014Z,28.00
2019-06-01T03:10:08.941Z,28.00
2019-06-01T03:11:08.154Z,32.00
2019-06-01T03:12:09.251Z,36.00
2019-06-01T03:13:08.497Z,40.00
2019-06-01T03:14:09.002Z,44.00
2019-06-01T03:15:10.353Z,48.00
2019-06-01T03:16:08.989Z,52.00
2019-06-01T03:17:10.143Z,56.00
2019-06-01T03:18:09.370Z,64.00
2019-06-01T03:19:09.858Z,72.00
2019-06-01T03:20:09.694Z,76.00
2019-06-01T03:21:09.820Z,84.00
2019-06-01T03:22:09.941Z,88.00
2019-06-01T03:23:10.156Z,96.00
2019-06-01T03:24:10.306Z,104.00
2019-06-01T03:25:10.428Z,112.00
2019-06-01T03:26:10.664Z,120.00
2019-06-01T03:27:10.786Z,132.00
2019-06-01T03:28:44.804Z,140.00
2019-06-01T03:29:12.674Z,152.00
2019-06-01T03:30:14.819Z,164.00
2019-06-01T03:31:13.471Z,176.00
2019-06-01T03:32:33.217Z,184.00
2019-06-01T03:33:14.341Z,196.00
2019-06-01T03:34:13.963Z,208.00
2019-06-01T03:35:13.384Z,220.00
2019-06-01T03:36:13.137Z,236.00
2019-06-01T03:37:13.400Z,248.00
2019-06-01T03:38:12.664Z,268.00
2019-06-01T03:39:13.371Z,276.00
2019-06-01T03:40:23.240Z,288.00
2019-06-01T03:41:15.131Z,300.00
2019-06-01T03:42:13.864Z,312.00
2019-06-01T03:43:13.354Z,320.00
2019-06-01T03:44:13.501Z,328.00
2019-06-01T03:45:13.761Z,340.00
2019-06-01T03:46:13.801Z,352.00
2019-06-01T03:47:13.974Z,364.00
2019-06-01T03:48:14.123Z,380.00
2019-06-01T03:49:14.861Z,396.00
2019-06-01T03:50:14.514Z,408.00
2019-06-01T03:51:14.648Z,424.00
2019-06-01T03:52:14.810Z,436.00
2019-06-01T03:53:14.951Z,448.00
2019-06-01T03:54:15.087Z,464.00
2019-06-01T03:55:15.221Z,476.00
2019-06-01T03:56:15.498Z,488.00
2019-06-01T03:57:16.370Z,504.00
2019-06-01T03:58:15.882Z,536.00
2019-06-01T03:59:16.018Z,556.00
2019-06-01T04:00:16.876Z,580.00
2019-06-01T04:01:16.866Z,592.00
2019-06-01T04:02:17.373Z,584.00
2019-06-01T04:03:16.871Z,608.00
2019-06-01T04:04:16.850Z,632.00
2019-06-01T04:05:17.014Z,656.00
2019-06-01T04:06:17.209Z,700.00
2019-06-01T04:07:17.867Z,720.00
2019-06-01T04:08:17.603Z,740.00
2019-06-01T04:09:17.710Z,740.00
2019-06-01T04:10:17.934Z,748.00
2019-06-01T04:11:18.876Z,760.00
2019-06-01T04:12:18.356Z,780.00
2019-06-01T04:13:18.611Z,800.00
2019-06-01T04:14:19.380Z,828.00
2019-06-01T04:15:18.846Z,864.00
2019-06-01T04:16:18.968Z,896.00
2019-06-01T04:17:19.202Z,912.00
2019-06-01T04:18:19.880Z,936.00
2019-06-01T04:19:19.579Z,964.00
2019-06-01T04:20:19.813Z,984.00
2019-06-01T04:21:19.919Z,1032.00
2019-06-01T04:22:20.910Z,1076.00
2019-06-01T04:23:20.299Z,1164.00
2019-06-01T04:24:20.414Z,1184.00
2019-06-01T04:25:20.550Z,1212.00
2019-06-01T04:26:20.659Z,1184.00
2019-06-01T04:27:20.828Z,1204.00
2019-06-01T04:28:20.960Z,1280.00
2019-06-01T04:29:21.079Z,1312.00
2019-06-01T04:30:21.309Z,1372.00
2019-06-01T04:31:21.406Z,1392.00
2019-06-01T04:32:21.651Z,1444.00
2019-06-01T04:33:22.398Z,1464.00
2019-06-01T04:34:21.989Z,1536.00
2019-06-01T04:35:23.222Z,1568.00
2019-06-01T04:36:22.416Z,1620.00
2019-06-01T04:37:22.647Z,1628.00
2019-06-01T04:38:22.881Z,1652.00
2019-06-01T04:39:23.040Z,1672.00
2019-06-01T04:40:23.176Z,1768.00
2019-06-01T04:41:23.336Z,2052.00
2019-06-01T04:42:23.440Z,2576.00
2019-06-01T04:43:23.895Z,2344.00
2019-06-01T04:44:23.794Z,1992.00
2019-06-01T04:45:23.938Z,2020.00
2019-06-01T04:46:24.107Z,2128.00
2019-06-01T04:47:24.238Z,2920.00
2019-06-01T04:48:24.362Z,1988.00
2019-06-01T04:49:24.562Z,1928.00
2019-06-01T04:50:24.726Z,2008.00
2019-06-01T04:51:24.866Z,2004.00
2019-06-01T04:52:24.992Z,2132.00
2019-06-01T04:53:25.098Z,2036.00
2019-06-01T04:54:25.343Z,1940.00
2019-06-01T04:55:25.589Z,2004.00
2019-06-01T04:56:25.694Z,4084.00
2019-06-01T04:57:25.934Z,2204.00
2019-06-01T04:58:26.179Z,2368.00
2019-06-01T04:59:26.308Z,3252.00
2019-06-01T05:00:28.067Z,5056.00
2019-06-01T05:01:27.662Z,4984.00
2019-06-01T05:02:26.870Z,3704.00
2019-06-01T05:03:27.110Z,5120.00
2019-06-01T05:04:27.351Z,16992.00
2019-06-01T05:05:27.897Z,19648.00
2019-06-01T05:06:27.613Z,17088.00
2019-06-01T05:07:27.740Z,30176.00
2019-06-01T05:08:27.847Z,28768.00
2019-06-01T05:09:27.984Z,39008.00
2019-06-01T05:10:28.143Z,40384.00
2019-06-01T05:11:28.277Z,27872.00
2019-06-01T05:12:28.416Z,16064.00
2019-06-01T05:13:28.538Z,17280.00
2019-06-01T05:14:29.381Z,20608.00
2019-06-01T05:15:28.907Z,18912.00
2019-06-01T05:16:29.401Z,10040.00
2019-06-01T05:17:29.265Z,12792.00
2019-06-01T05:18:29.417Z,8796.00
2019-06-01T05:19:30.384Z,5452.00
2019-06-01T05:20:29.782Z,8728.00
2019-06-01T05:21:30.409Z,8576.00
2019-06-01T05:22:30.084Z,6504.00
2019-06-01T05:23:30.887Z,5488.00
2019-06-01T05:24:30.390Z,7448.00
2019-06-01T05:25:30.541Z,12144.00
2019-06-01T05:26:30.731Z,7536.00
2019-06-01T05:27:31.389Z,16736.00
2019-06-01T05:28:31.040Z,3616.00
2019-06-01T05:29:31.197Z,3312.00
2019-06-01T05:30:31.419Z,3204.00
2019-06-01T05:31:31.549Z,8672.00
2019-06-01T05:32:31.759Z,4700.00
2019-06-01T05:33:37.330Z,3824.00
2019-06-01T05:34:34.030Z,5824.00
2019-06-01T05:35:32.246Z,10656.00
2019-06-01T05:36:33.388Z,3408.00
2019-06-01T05:37:32.922Z,3948.00
2019-06-01T05:38:32.844Z,2816.00
2019-06-01T05:39:33.009Z,3076.00
2019-06-01T05:40:33.174Z,3352.00
2019-06-01T05:41:33.351Z,3716.00
2019-06-01T05:42:33.560Z,3352.00
2019-06-01T05:43:34.407Z,3492.00
2019-06-01T05:44:33.893Z,3452.00
2019-06-01T05:45:34.124Z,3408.00
2019-06-01T05:46:34.271Z,3544.00
2019-06-01T05:47:34.912Z,3244.00
2019-06-01T05:48:34.542Z,3288.00
2019-06-01T05:49:34.673Z,3392.00
2019-06-01T05:50:34.804Z,3304.00
2019-06-01T05:51:34.952Z,3408.00
2019-06-01T05:52:35.104Z,3144.00
2019-06-01T05:53:35.225Z,0.00
2019-06-01T05:54:35.912Z,3056.00
2019-06-01T05:55:35.513Z,3152.00
2019-06-01T05:56:35.738Z,3036.00
2019-06-01T05:57:35.982Z,2896.00
2019-06-01T05:58:36.112Z,3012.00
2019-06-01T05:59:36.319Z,3048.00
2019-06-01T06:00:36.564Z,3036.00
2019-06-01T06:01:36.686Z,2880.00
2019-06-01T06:02:36.803Z,3052.00
2019-06-01T06:03:40.274Z,3084.00
2019-06-01T06:04:38.313Z,3128.00
2019-06-01T06:05:37.405Z,3340.00
2019-06-01T06:06:37.531Z,3128.00
2019-06-01T06:07:44.422Z,3120.00
2019-06-01T06:08:38.425Z,3092.00
2019-06-01T06:09:39.087Z,3196.00
2019-06-01T06:10:38.263Z,3216.00
2019-06-01T06:11:38.423Z,3336.00
2019-06-01T06:12:38.566Z,3216.00
2019-06-01T06:13:38.737Z,4372.00
2019-06-01T06:14:38.885Z,3196.00
2019-06-01T06:15:39.916Z,3204.00
2019-06-01T06:16:39.930Z,3224.00
2019-06-01T06:17:39.325Z,3252.00
2019-06-01T06:18:39.471Z,3200.00
2019-06-01T06:19:39.607Z,3188.00
2019-06-01T06:20:39.751Z,3196.00
2019-06-01T06:21:40.421Z,3264.00
2019-06-01T06:22:41.287Z,3340.00
2019-06-01T06:23:41.257Z,3464.00
2019-06-01T06:24:40.410Z,40416.00
2019-06-01T06:25:41.500Z,3436.00
2019-06-01T06:26:41.682Z,20736.00
2019-06-01T06:27:40.890Z,4608.00
2019-06-01T06:28:41.142Z,13984.00
2019-06-01T06:29:41.387Z,4544.00
2019-06-01T06:30:42.418Z,40960.00
2019-06-01T06:31:42.418Z,50784.00
2019-06-01T06:32:41.761Z,64544.00
2019-06-01T06:33:55.535Z,49504.00
2019-06-01T06:34:44.155Z,3776.00
2019-06-01T06:35:42.920Z,3996.00
2019-06-01T06:36:42.916Z,7432.00
2019-06-01T06:37:42.569Z,20992.00
2019-06-01T06:38:42.694Z,38976.00
2019-06-01T06:39:42.953Z,21344.00
2019-06-01T06:40:43.919Z,4276.00
2019-06-01T06:41:43.275Z,3816.00
2019-06-01T06:42:43.407Z,3820.00
2019-06-01T06:44:16.950Z,3932.00
2019-06-01T06:44:43.684Z,7188.00
2019-06-01T06:45:43.817Z,33504.00
2019-06-01T06:46:44.458Z,55392.00
2019-06-01T06:47:44.222Z,39040.00
2019-06-01T06:48:44.346Z,4604.00
2019-06-01T06:49:44.476Z,4972.00
2019-06-01T06:50:44.640Z,4020.00
2019-06-01T06:51:45.455Z,3736.00
2019-06-01T06:52:44.949Z,3824.00
2019-06-01T06:53:45.957Z,3888.00
2019-06-01T06:54:45.320Z,3748.00
2019-06-01T06:55:45.484Z,3676.00
2019-06-01T06:56:46.451Z,3740.00
2019-06-01T06:57:45.861Z,3768.00
2019-06-01T06:58:46.014Z,3816.00
2019-06-01T06:59:46.156Z,3740.00
2019-06-01T07:00:46.310Z,3792.00
2019-06-01T07:01:47.452Z,3800.00
2019-06-01T07:02:47.462Z,3836.00
2019-06-01T07:03:46.726Z,3796.00
2019-06-01T07:04:46.892Z,3900.00
2019-06-01T07:05:47.102Z,4580.00
2019-06-01T07:06:47.256Z,16896.00
2019-06-01T07:07:47.428Z,21920.00
2019-06-01T07:08:49.004Z,21696.00
2019-06-01T07:09:49.458Z,46240.00
2019-06-01T07:10:47.995Z,53984.00
2019-06-01T07:11:48.953Z,49216.00
2019-06-01T07:12:48.951Z,21504.00
2019-06-01T07:13:48.484Z,20800.00
2019-06-01T07:14:49.486Z,12344.00
2019-06-01T07:15:49.012Z,16544.00
2019-06-01T07:16:49.486Z,15680.00
2019-06-01T07:17:49.947Z,7456.00
2019-06-01T07:18:49.487Z,5844.00
2019-06-01T07:19:50.463Z,4020.00
2019-06-01T07:20:49.848Z,4260.00
2019-06-01T07:21:50.062Z,4648.00
2019-06-01T07:22:50.257Z,13716.00
2019-06-01T07:23:50.990Z,5716.00
2019-06-01T07:24:50.627Z,5424.00
2019-06-01T07:25:50.800Z,3976.00
2019-06-01T07:26:50.987Z,3920.00
2019-06-01T07:27:51.170Z,5796.00
2019-06-01T07:28:51.361Z,6124.00
2019-06-01T07:29:51.592Z,7276.00
2019-06-01T07:30:51.785Z,14248.00
2019-06-01T07:31:52.004Z,16608.00
2019-06-01T07:32:52.217Z,24096.00
2019-06-01T07:33:52.969Z,23744.00
2019-06-01T07:34:52.521Z,44064.00
2019-06-01T07:35:52.713Z,65792.00
2019-06-01T07:36:52.976Z,32672.00
2019-06-01T07:37:53.055Z,17952.00
2019-06-01T07:38:53.224Z,5592.00
2019-06-01T07:40:26.905Z,4276.00
2019-06-01T07:40:53.497Z,6692.00
2019-06-01T07:41:53.636Z,3712.00
2019-06-01T07:42:53.846Z,9128.00
2019-06-01T07:43:54.987Z,7568.00
2019-06-01T07:44:54.235Z,11580.00
2019-06-01T07:45:54.405Z,6476.00
2019-06-01T07:46:54.551Z,5620.00
2019-06-01T07:47:54.677Z,5976.00
2019-06-01T07:48:54.801Z,10784.00
2019-06-01T07:49:54.953Z,21408.00
2019-06-01T07:50:55.206Z,31712.00
2019-06-01T07:51:55.434Z,32512.00
2019-06-01T07:52:55.453Z,26720.00
2019-06-01T07:53:56.492Z,40992.00
2019-06-01T07:54:55.719Z,46464.00
2019-06-01T07:55:55.893Z,21024.00
2019-06-01T07:56:56.010Z,9864.00
2019-06-01T07:57:56.172Z,9812.00
2019-06-01T07:58:56.294Z,6884.00
2019-06-01T07:59:56.416Z,20640.00
2019-06-01T08:00:56.572Z,9420.00
2019-06-01T08:01:56.733Z,8480.00
2019-06-01T08:02:56.954Z,6080.00
2019-06-01T08:03:57.091Z,4308.00
2019-06-01T08:04:58.018Z,4716.00
2019-06-01T08:05:57.996Z,4176.00
2019-06-01T08:06:58.049Z,4312.00
2019-06-01T08:08:31.539Z,3940.00
2019-06-01T08:08:58.532Z,5700.00
2019-06-01T08:09:58.595Z,4240.00
2019-06-01T08:10:59.025Z,4132.00
2019-06-01T08:11:58.382Z,4352.00
2019-06-01T08:12:59.039Z,4688.00
2019-06-01T08:13:58.684Z,4780.00
2019-06-01T08:14:59.535Z,8000.00
2019-06-01T08:15:59.510Z,3960.00
2019-06-01T08:16:59.243Z,3896.00
2019-06-01T08:17:59.401Z,4140.00
2019-06-01T08:18:59.577Z,4584.00
2019-06-01T08:19:59.721Z,4620.00
2019-06-01T08:20:59.961Z,4812.00
2019-06-01T08:22:01.036Z,4092.00
2019-06-01T08:23:00.396Z,4060.00
2019-06-01T08:24:00.563Z,3988.00
2019-06-01T08:25:00.705Z,4072.00
2019-06-01T08:26:00.861Z,4180.00
2019-06-01T08:27:00.979Z,5700.00
2019-06-01T08:28:01.106Z,4688.00
2019-06-01T08:29:01.246Z,9548.00
2019-06-01T08:30:01.413Z,10244.00
2019-06-01T08:31:02.530Z,5360.00
2019-06-01T08:32:02.527Z,12604.00
2019-06-01T08:33:02.014Z,12572.00
2019-06-01T08:34:02.177Z,6296.00
2019-06-01T08:35:08.584Z,4420.00
2019-06-01T08:36:04.498Z,3564.00
2019-06-01T08:37:02.756Z,4184.00
2019-06-01T08:38:02.933Z,4380.00
2019-06-01T08:39:03.093Z,4312.00
2019-06-01T08:40:03.401Z,4380.00
2019-06-01T08:41:03.497Z,4244.00
2019-06-01T08:42:04.555Z,4168.00
2019-06-01T08:43:03.822Z,4236.00
2019-06-01T08:44:03.967Z,4236.00
2019-06-01T08:45:04.164Z,3920.00
2019-06-01T08:46:04.339Z,4528.00
2019-06-01T08:47:04.571Z,3912.00
2019-06-01T08:48:04.802Z,3944.00
2019-06-01T08:49:04.839Z,4108.00
2019-06-01T08:50:05.012Z,4304.00
2019-06-01T08:51:05.194Z,3536.00
2019-06-01T08:52:05.358Z,6024.00
2019-06-01T08:53:05.528Z,8656.00
2019-06-01T08:54:05.706Z,9200.00
2019-06-01T08:55:05.878Z,11420.00
2019-06-01T08:56:06.049Z,9256.00
2019-06-01T08:57:06.228Z,7436.00
2019-06-01T08:58:06.389Z,4164.00
2019-06-01T08:59:06.534Z,5264.00
2019-06-01T09:00:07.529Z,4812.00
2019-06-01T09:01:06.875Z,4540.00
2019-06-01T09:02:07.050Z,4576.00
2019-06-01T09:03:07.178Z,4536.00
2019-06-01T09:04:07.317Z,5400.00
2019-06-01T09:05:21.279Z,10872.00
2019-06-01T09:06:08.578Z,10332.00
2019-06-01T09:07:07.826Z,9292.00
2019-06-01T09:08:08.537Z,10332.00
2019-06-01T09:09:11.547Z,7380.00
2019-06-01T09:10:09.046Z,9236.00
2019-06-01T09:11:08.416Z,7052.00
2019-06-01T09:12:09.572Z,4916.00
2019-06-01T09:13:08.805Z,4840.00
2019-06-01T09:14:08.938Z,4348.00
2019-06-01T09:15:10.056Z,4176.00
2019-06-01T09:16:10.051Z,3996.00
2019-06-01T09:17:10.069Z,4040.00
2019-06-01T09:18:09.598Z,3920.00
2019-06-01T09:19:11.366Z,3804.00
2019-06-01T09:20:10.991Z,3764.00
2019-06-01T09:21:10.105Z,3956.00
2019-06-01T09:22:10.326Z,3920.00
2019-06-01T09:23:10.528Z,4192.00
2019-06-01T09:24:10.644Z,4084.00
2019-06-01T09:25:11.562Z,3824.00
2019-06-01T09:26:10.940Z,3960.00
2019-06-01T09:27:12.060Z,3884.00
2019-06-01T09:28:11.312Z,3916.00
2019-06-01T09:29:11.560Z,4132.00
2019-06-01T09:30:11.563Z,4924.00
2019-06-01T09:31:11.691Z,7172.00
2019-06-01T09:32:11.852Z,6552.00
2019-06-01T09:33:12.018Z,6484.00
2019-06-01T09:34:12.176Z,4780.00
2019-06-01T09:35:12.311Z,3964.00
2019-06-01T09:36:12.489Z,4052.00
2019-06-01T09:37:12.616Z,3944.00
2019-06-01T09:38:13.552Z,3968.00
2019-06-01T09:39:12.951Z,4008.00
2019-06-01T09:40:13.104Z,4052.00
2019-06-01T09:41:13.336Z,3988.00
2019-06-01T09:42:13.403Z,4228.00
2019-06-01T09:43:13.535Z,4396.00
2019-06-01T09:44:13.691Z,4176.00
2019-06-01T09:45:13.847Z,3976.00
2019-06-01T09:46:14.557Z,3952.00
2019-06-01T09:47:14.200Z,4364.00
2019-06-01T09:48:14.346Z,4064.00
2019-06-01T09:49:14.516Z,4232.00
2019-06-01T09:50:14.702Z,4092.00
2019-06-01T09:51:14.856Z,3792.00
2019-06-01T09:52:15.024Z,3440.00
2019-06-01T09:53:15.174Z,3304.00
2019-06-01T09:54:16.325Z,3396.00
2019-06-01T09:55:15.572Z,3460.00
2019-06-01T09:56:15.622Z,3540.00
2019-06-01T09:57:15.789Z,3584.00
2019-06-01T09:58:15.966Z,3536.00
2019-06-01T09:59:16.121Z,3876.00
2019-06-01T10:00:16.319Z,4620.00
2019-06-01T10:01:16.464Z,4740.00
2019-06-01T10:02:16.630Z,4880.00
2019-06-01T10:03:16.780Z,5132.00
2019-06-01T10:04:16.945Z,5476.00
2019-06-01T10:05:17.110Z,4300.00
2019-06-01T10:06:18.096Z,4112.00
2019-06-01T10:07:17.483Z,4008.00
2019-06-01T10:08:17.621Z,3976.00
2019-06-01T10:09:17.740Z,3972.00
2019-06-01T10:10:17.901Z,3876.00
2019-06-01T10:11:18.076Z,3920.00
2019-06-01T10:12:19.101Z,4048.00
2019-06-01T10:13:18.351Z,4312.00
2019-06-01T10:14:18.487Z,3704.00
2019-06-01T10:15:19.073Z,4004.00
2019-06-01T10:16:18.807Z,4852.00
2019-06-01T10:17:18.937Z,4844.00
2019-06-01T10:18:20.080Z,4480.00
2019-06-01T10:19:19.178Z,3612.00
2019-06-01T10:20:20.071Z,4260.00
2019-06-01T10:21:19.588Z,3600.00
2019-06-01T10:22:19.631Z,4116.00
2019-06-01T10:23:19.783Z,3412.00
2019-06-01T10:24:19.921Z,3940.00
2019-06-01T10:25:20.048Z,3344.00
2019-06-01T10:26:20.222Z,3440.00
2019-06-01T10:27:20.389Z,3468.00
2019-06-01T10:28:20.537Z,3516.00
2019-06-01T10:29:20.670Z,3848.00
2019-06-01T10:30:21.582Z,4112.00
2019-06-01T10:31:20.939Z,4260.00
2019-06-01T10:32:21.120Z,4184.00
2019-06-01T10:33:21.246Z,3612.00
2019-06-01T10:34:21.364Z,3284.00
2019-06-01T10:35:21.618Z,3976.00
2019-06-01T10:36:21.814Z,3456.00
2019-06-01T10:37:22.089Z,3236.00
2019-06-01T10:38:22.108Z,3056.00
2019-06-01T10:39:22.214Z,3232.00
2019-06-01T10:40:22.453Z,3700.00
2019-06-01T10:41:22.617Z,3012.00
2019-06-01T10:42:23.089Z,2972.00
2019-06-01T10:43:22.937Z,3064.00
2019-06-01T10:44:23.053Z,3728.00
2019-06-01T10:45:24.092Z,3272.00
2019-06-01T10:46:23.460Z,3492.00
2019-06-01T10:47:23.587Z,3120.00
2019-06-01T10:48:23.833Z,3004.00
2019-06-01T10:49:23.921Z,3312.00
2019-06-01T10:50:24.054Z,3312.00
2019-06-01T10:51:24.285Z,3100.00
2019-06-01T10:52:24.542Z,3076.00
2019-06-01T10:53:24.671Z,3072.00
2019-06-01T10:54:24.775Z,3060.00
2019-06-01T10:55:25.149Z,3020.00
2019-06-01T10:56:25.143Z,3000.00
2019-06-01T10:57:25.392Z,2976.00
2019-06-01T10:58:25.606Z,2920.00
2019-06-01T10:59:26.100Z,3012.00
2019-06-01T11:00:37.750Z,2888.00
2019-06-01T11:01:32.241Z,2804.00
2019-06-01T11:02:27.083Z,2764.00
2019-06-01T11:03:26.525Z,2692.00
2019-06-01T11:04:26.794Z,2692.00
2019-06-01T11:05:27.018Z,2656.00
2019-06-01T11:06:36.615Z,2672.00
2019-06-01T11:07:29.321Z,2696.00
2019-06-01T11:08:27.549Z,2624.00
2019-06-01T11:09:27.785Z,2648.00
2019-06-01T11:10:28.590Z,2620.00
2019-06-01T11:11:28.587Z,2620.00
2019-06-01T11:12:28.174Z,2576.00
2019-06-01T11:13:28.403Z,2568.00
2019-06-01T11:14:28.650Z,2692.00
2019-06-01T11:15:29.098Z,2732.00
2019-06-01T11:16:28.958Z,2648.00
2019-06-01T11:17:29.094Z,2640.00
2019-06-01T11:18:29.235Z,2608.00
2019-06-01T11:19:29.627Z,2628.00
2019-06-01T11:20:29.485Z,2720.00
2019-06-01T11:21:29.600Z,2748.00
2019-06-01T11:22:29.847Z,2812.00
2019-06-01T11:23:30.585Z,2764.00
2019-06-01T11:24:30.609Z,2720.00
2019-06-01T11:25:30.327Z,2652.00
2019-06-01T11:26:30.669Z,2744.00
2019-06-01T11:27:30.733Z,2728.00
2019-06-01T11:28:30.947Z,2640.00
2019-06-01T11:29:31.110Z,2676.00
2019-06-01T11:30:31.251Z,2680.00
2019-06-01T11:31:31.410Z,2636.00
2019-06-01T11:32:31.526Z,2724.00
2019-06-01T11:33:31.670Z,2764.00
2019-06-01T11:34:31.802Z,2676.00
2019-06-01T11:35:31.961Z,2732.00
2019-06-01T11:36:32.110Z,2736.00
2019-06-01T11:37:32.277Z,2784.00
2019-06-01T11:38:32.556Z,2740.00
2019-06-01T11:39:32.578Z,2700.00
2019-06-01T11:40:34.351Z,2672.00
2019-06-01T11:41:32.905Z,2660.00
2019-06-01T11:42:34.946Z,2732.00
2019-06-01T11:43:34.469Z,2772.00
2019-06-01T11:44:34.668Z,2668.00
2019-06-01T11:45:34.865Z,2688.00
2019-06-01T11:46:34.759Z,2740.00
2019-06-01T11:47:35.047Z,2700.00
2019-06-01T11:48:35.166Z,2708.00
2019-06-01T11:49:34.710Z,2780.00
2019-06-01T11:50:36.900Z,2680.00
2019-06-01T11:51:34.920Z,2928.00
2019-06-01T11:52:35.042Z,2784.00
2019-06-01T11:53:37.321Z,2776.00
2019-06-01T11:54:36.945Z,2824.00
2019-06-01T11:55:35.618Z,2868.00
2019-06-01T11:56:37.253Z,2788.00
2019-06-01T11:57:37.343Z,2804.00
2019-06-01T11:58:36.977Z,2796.00
2019-06-01T11:59:37.279Z,2800.00
2019-06-01T12:00:37.543Z,2916.00
2019-06-01T12:01:37.715Z,2964.00
2019-06-01T12:02:37.451Z,2992.00
2019-06-01T12:03:37.647Z,2972.00
2019-06-01T12:04:38.110Z,2964.00
2019-06-01T12:05:37.890Z,2916.00
2019-06-01T12:06:39.809Z,2972.00
2019-06-01T12:07:37.942Z,3128.00
2019-06-01T12:08:38.177Z,3088.00
2019-06-01T12:09:40.141Z,3108.00
2019-06-01T12:10:38.987Z,3088.00
2019-06-01T12:11:40.052Z,3084.00
2019-06-01T12:12:40.027Z,3048.00
2019-06-01T12:13:40.149Z,3064.00
2019-06-01T12:14:40.292Z,3120.00
2019-06-01T12:15:40.346Z,3064.00
2019-06-01T12:16:40.378Z,3028.00
2019-06-01T12:17:40.676Z,3092.00
2019-06-01T12:18:40.587Z,3080.00
2019-06-01T12:19:40.727Z,3036.00
2019-06-01T12:20:40.831Z,2936.00
2019-06-01T12:21:40.934Z,3060.00
2019-06-01T12:22:40.858Z,2948.00
2019-06-01T12:23:41.477Z,3028.00
2019-06-01T12:24:40.980Z,3060.00
2019-06-01T12:25:42.117Z,3108.00